createdAt,value
2018-09-01T00:01:12.230Z,3.73
2018-09-01T00:03:40.542Z,3.17
2018-09-01T00:06:08.703Z,3.40
2018-09-01T00:08:36.903Z,3.37
2018-09-01T00:11:05.098Z,3.30
2018-09-01T00:13:33.303Z,3.53
2018-09-01T00:16:01.543Z,4.17
2018-09-01T00:18:29.750Z,3.03
2018-09-01T00:20:57.938Z,3.53
2018-09-01T00:23:26.110Z,3.00
2018-09-01T00:25:54.327Z,2.87
2018-09-01T00:28:22.518Z,3.00
2018-09-01T00:30:50.728Z,3.10
2018-09-01T00:33:18.886Z,3.30
2018-09-01T00:35:47.067Z,2.97
2018-09-01T00:38:20.724Z,2.60
2018-09-01T00:40:48.913Z,3.00
2018-09-01T00:43:17.128Z,2.70
2018-09-01T00:45:45.304Z,2.93
2018-09-01T00:48:13.627Z,2.77
2018-09-01T00:50:41.946Z,3.23
2018-09-01T00:53:10.170Z,3.23
2018-09-01T00:55:38.364Z,3.37
2018-09-01T00:58:06.593Z,3.10
2018-09-01T01:00:34.775Z,3.33
2018-09-01T01:03:03.019Z,3.50
2018-09-01T01:05:31.204Z,3.07
2018-09-01T01:07:59.415Z,3.40
2018-09-01T01:10:27.611Z,3.17
2018-09-01T01:12:55.921Z,3.47
2018-09-01T01:15:24.195Z,3.47
2018-09-01T01:17:52.406Z,3.27
2018-09-01T01:20:20.584Z,3.70
2018-09-01T01:22:48.761Z,3.27
2018-09-01T01:25:17.027Z,4.20
2018-09-01T01:27:45.286Z,3.33
2018-09-01T01:30:13.517Z,3.80
2018-09-01T01:32:41.715Z,4.00
2018-09-01T01:35:09.924Z,3.63
2018-09-01T01:37:38.134Z,4.07
2018-09-01T01:40:06.516Z,4.20
2018-09-01T01:42:35.943Z,3.90
2018-09-01T01:45:04.621Z,4.23
2018-09-01T01:47:38.120Z,4.77
2018-09-01T01:50:07.248Z,4.17
2018-09-01T01:52:35.448Z,4.43
2018-09-01T01:55:03.635Z,3.70
2018-09-01T01:57:31.805Z,4.20
2018-09-01T01:59:59.971Z,4.63
2018-09-01T02:02:28.147Z,4.67
2018-09-01T02:04:56.304Z,3.90
2018-09-01T02:07:24.453Z,3.60
2018-09-01T02:09:52.665Z,4.03
2018-09-01T02:12:20.805Z,2.97
2018-09-01T02:14:48.962Z,3.43
2018-09-01T02:17:17.235Z,2.93
2018-09-01T02:19:45.400Z,3.30
2018-09-01T02:22:13.584Z,3.53
2018-09-01T02:24:41.777Z,3.27
2018-09-01T02:27:09.964Z,2.97
2018-09-01T02:29:38.198Z,3.97
2018-09-01T02:32:06.497Z,3.50
2018-09-01T02:34:34.659Z,3.30
2018-09-01T02:37:02.921Z,3.40
2018-09-01T02:39:31.070Z,3.70
2018-09-01T02:41:59.278Z,3.90
2018-09-01T02:44:27.464Z,3.43
2018-09-01T02:46:55.662Z,3.87
2018-09-01T02:49:23.867Z,3.10
2018-09-01T02:51:52.098Z,3.03
2018-09-01T02:54:20.348Z,2.70
2018-09-01T02:56:48.625Z,2.87
2018-09-01T02:59:16.834Z,2.80
2018-09-01T03:01:44.989Z,2.93
2018-09-01T03:04:13.187Z,2.50
2018-09-01T03:06:51.141Z,2.40
2018-09-01T03:09:19.535Z,2.60
2018-09-01T03:11:47.797Z,2.47
2018-09-01T03:14:15.967Z,2.40
2018-09-01T03:16:44.137Z,2.70
2018-09-01T03:19:12.275Z,2.90
2018-09-01T03:21:40.431Z,2.37
2018-09-01T03:24:08.642Z,2.50
2018-09-01T03:26:36.851Z,2.63
2018-09-01T03:29:05.138Z,2.40
2018-09-01T03:31:33.570Z,2.27
2018-09-01T03:34:01.964Z,2.30
2018-09-01T03:36:30.164Z,2.63
2018-09-01T03:38:58.576Z,2.13
2018-09-01T03:41:26.744Z,2.10
2018-09-01T03:43:54.918Z,2.53
2018-09-01T03:46:23.078Z,2.00
2018-09-01T03:48:51.644Z,2.57
2018-09-01T03:51:19.861Z,2.03
2018-09-01T03:53:48.178Z,2.13
2018-09-01T03:56:16.311Z,2.20
2018-09-01T03:58:44.486Z,2.40
2018-09-01T04:01:12.676Z,2.03
2018-09-01T04:03:40.827Z,2.73
2018-09-01T04:06:09.023Z,2.53
2018-09-01T04:08:37.318Z,3.13
2018-09-01T04:11:05.521Z,2.70
2018-09-01T04:13:33.728Z,2.13
2018-09-01T04:16:01.854Z,2.50
2018-09-01T04:18:30.008Z,2.50
2018-09-01T04:20:58.187Z,2.67
2018-09-01T04:23:26.464Z,2.27
2018-09-01T04:25:54.836Z,2.63
2018-09-01T04:28:22.976Z,2.57
2018-09-01T04:30:51.168Z,2.53
2018-09-01T04:33:19.360Z,3.00
2018-09-01T04:35:47.716Z,3.03
2018-09-01T04:38:15.898Z,2.70
2018-09-01T04:40:44.430Z,2.73
2018-09-01T04:43:12.590Z,2.80
2018-09-01T04:45:41.416Z,2.87
2018-09-01T04:48:09.741Z,3.10
2018-09-01T04:50:37.931Z,2.83
2018-09-01T04:53:06.260Z,3.03
2018-09-01T04:55:34.736Z,2.97
2018-09-01T04:58:03.144Z,2.87
2018-09-01T05:00:31.366Z,3.33
2018-09-01T05:02:59.720Z,2.90
2018-09-01T05:05:28.058Z,2.77
2018-09-01T05:07:56.361Z,2.87
2018-09-01T05:10:24.595Z,2.80
2018-09-01T05:12:52.800Z,3.10
2018-09-01T05:15:21.012Z,2.80
2018-09-01T05:17:49.239Z,2.77
2018-09-01T05:20:17.416Z,2.70
2018-09-01T05:22:45.604Z,3.10
2018-09-01T05:25:13.811Z,2.70
2018-09-01T05:27:41.985Z,2.97
2018-09-01T05:30:10.270Z,2.87
2018-09-01T05:32:38.468Z,3.13
2018-09-01T05:35:06.700Z,2.70
2018-09-01T05:37:34.863Z,2.40
2018-09-01T05:40:03.112Z,2.70
2018-09-01T05:42:31.293Z,3.00
2018-09-01T05:44:59.508Z,3.17
2018-09-01T05:47:27.708Z,2.90
2018-09-01T05:49:55.894Z,3.17
2018-09-01T05:52:24.098Z,3.00
2018-09-01T05:54:52.360Z,3.00
2018-09-01T05:57:20.514Z,2.80
2018-09-01T05:59:48.683Z,3.00
2018-09-01T06:02:16.865Z,2.70
2018-09-01T06:04:45.060Z,3.27
2018-09-01T06:07:13.269Z,3.10
2018-09-01T06:09:41.480Z,3.60
2018-09-01T06:12:09.651Z,2.60
2018-09-01T06:14:37.807Z,3.00
2018-09-01T06:17:06.247Z,3.47
2018-09-01T06:19:34.416Z,3.40
2018-09-01T06:22:02.621Z,3.37
2018-09-01T06:24:30.805Z,3.40
2018-09-01T06:27:00.717Z,3.43
2018-09-01T06:29:28.888Z,2.70
2018-09-01T06:32:02.555Z,3.20
2018-09-01T06:34:30.901Z,2.90
2018-09-01T06:36:59.127Z,3.10
2018-09-01T06:39:27.291Z,3.20
2018-09-01T06:41:55.495Z,2.77
2018-09-01T06:44:23.634Z,3.77
2018-09-01T06:46:51.843Z,3.33
2018-09-01T06:49:19.986Z,3.20
2018-09-01T06:51:48.195Z,3.10
2018-09-01T06:54:16.327Z,2.97
2018-09-01T06:56:44.571Z,3.17
2018-09-01T06:59:12.773Z,3.27
2018-09-01T07:01:40.997Z,3.30
2018-09-01T07:04:09.150Z,3.63
2018-09-01T07:06:37.282Z,3.30
2018-09-01T07:09:06.928Z,3.00
2018-09-01T07:11:35.248Z,3.20
2018-09-01T07:14:03.451Z,3.57
2018-09-01T07:16:31.762Z,3.70
2018-09-01T07:18:59.910Z,3.97
2018-09-01T07:21:28.066Z,3.60
2018-09-01T07:23:56.326Z,3.50
2018-09-01T07:26:24.575Z,3.33
2018-09-01T07:28:53.082Z,4.47
2018-09-01T07:31:21.674Z,3.40
2018-09-01T07:33:49.471Z,3.60
2018-09-01T07:36:17.930Z,3.30
2018-09-01T07:38:46.536Z,3.80
2018-09-01T07:41:14.897Z,3.23
2018-09-01T07:43:43.131Z,4.50
2018-09-01T07:46:11.353Z,4.73
2018-09-01T07:48:39.557Z,4.37
2018-09-01T07:51:07.774Z,4.00
2018-09-01T07:53:36.007Z,4.40
2018-09-01T07:56:04.248Z,5.00
2018-09-01T07:58:32.358Z,4.33
2018-09-01T08:01:00.520Z,4.25
2018-09-01T08:03:28.711Z,4.78
2018-09-01T08:05:56.966Z,4.47
2018-09-01T08:08:25.219Z,4.60
2018-09-01T08:10:53.467Z,4.40
2018-09-01T08:13:21.746Z,4.58
2018-09-01T08:15:50.037Z,3.92
2018-09-01T08:18:18.290Z,4.15
2018-09-01T08:20:46.790Z,4.15
2018-09-01T08:23:15.000Z,3.75
2018-09-01T08:25:43.221Z,3.52
2018-09-01T08:28:11.445Z,3.27
2018-09-01T08:30:39.669Z,3.00
2018-09-01T08:33:07.845Z,2.77
2018-09-01T08:35:36.049Z,2.60
2018-09-01T08:38:04.327Z,3.50
2018-09-01T08:40:32.728Z,2.60
2018-09-01T08:43:00.916Z,2.60
2018-09-01T08:45:29.175Z,2.42
2018-09-01T08:47:57.402Z,2.42
2018-09-01T08:50:25.579Z,2.70
2018-09-01T08:52:53.786Z,2.40
2018-09-01T08:55:21.990Z,2.95
2018-09-01T08:57:50.146Z,2.50
2018-09-01T09:00:18.301Z,2.17
2018-09-01T09:02:46.521Z,2.37
2018-09-01T09:05:14.715Z,2.42
2018-09-01T09:07:42.915Z,2.30
2018-09-01T09:10:11.100Z,2.27
2018-09-01T09:12:39.336Z,2.35
2018-09-01T09:15:07.547Z,2.40
2018-09-01T09:17:35.738Z,1.67
2018-09-01T09:20:03.927Z,2.00
2018-09-01T09:22:32.153Z,1.70
2018-09-01T09:25:00.407Z,1.35
2018-09-01T09:27:28.554Z,1.62
2018-09-01T09:29:56.714Z,1.37
2018-09-01T09:32:24.890Z,1.72
2018-09-01T09:34:53.066Z,1.80
2018-09-01T09:37:21.289Z,1.90
2018-09-01T09:39:49.484Z,2.30
2018-09-01T09:42:17.635Z,1.65
2018-09-01T09:44:45.854Z,1.27
2018-09-01T09:47:14.040Z,1.80
2018-09-01T09:49:42.194Z,3.12
2018-09-01T09:52:10.363Z,2.35
2018-09-01T09:54:38.555Z,1.70
2018-09-01T09:57:06.706Z,1.50
2018-09-01T09:59:34.914Z,1.67
2018-09-01T10:02:04.110Z,1.07
2018-09-01T10:04:32.742Z,1.55
2018-09-01T10:07:00.943Z,1.10
2018-09-01T10:09:29.098Z,1.40
2018-09-01T10:11:57.307Z,1.20
2018-09-01T10:14:25.576Z,1.10
2018-09-01T10:16:53.772Z,1.00
2018-09-01T10:19:21.950Z,1.32
2018-09-01T10:21:50.147Z,1.10
2018-09-01T10:24:18.411Z,1.50
2018-09-01T10:26:46.625Z,1.40
2018-09-01T10:29:14.796Z,1.42
2018-09-01T10:31:42.952Z,1.67
2018-09-01T10:34:11.143Z,1.20
2018-09-01T10:36:39.336Z,1.15
2018-09-01T10:39:08.873Z,0.82
2018-09-01T10:41:37.066Z,1.00
2018-09-01T10:44:05.848Z,1.10
2018-09-01T10:46:34.009Z,1.60
2018-09-01T10:49:02.222Z,1.25
2018-09-01T10:51:30.374Z,1.12
2018-09-01T10:53:58.547Z,1.10
2018-09-01T10:56:26.775Z,1.27
2018-09-01T10:58:55.066Z,1.37
2018-09-01T11:01:23.169Z,1.20
2018-09-01T11:03:51.349Z,1.47
2018-09-01T11:06:19.612Z,1.10
2018-09-01T11:08:47.787Z,1.40
2018-09-01T11:11:16.031Z,1.12
2018-09-01T11:13:44.254Z,1.07
2018-09-01T11:16:12.447Z,1.20
2018-09-01T11:18:40.603Z,1.25
2018-09-01T11:21:08.774Z,1.10
2018-09-01T11:23:36.963Z,1.30
2018-09-01T11:26:05.190Z,0.82
2018-09-01T11:28:33.334Z,1.10
2018-09-01T11:31:01.550Z,1.50
2018-09-01T11:33:29.754Z,1.20
2018-09-01T11:35:57.932Z,1.10
2018-09-01T11:38:26.175Z,1.00
2018-09-01T11:40:54.358Z,0.98
2018-09-01T11:43:22.754Z,0.72
2018-09-01T11:45:50.930Z,0.98
2018-09-01T11:48:19.156Z,1.00
2018-09-01T11:50:47.315Z,1.10
2018-09-01T11:53:15.637Z,0.70
2018-09-01T11:55:43.708Z,0.98
2018-09-01T11:58:11.893Z,1.22
2018-09-01T12:00:40.087Z,1.07
2018-09-01T12:03:08.266Z,0.95
2018-09-01T12:05:36.476Z,1.72
2018-09-01T12:08:04.725Z,1.40
2018-09-01T12:10:32.888Z,1.05
2018-09-01T12:13:01.055Z,1.12
2018-09-01T12:15:29.263Z,1.20
2018-09-01T12:17:57.453Z,1.17
2018-09-01T12:20:25.679Z,1.25
2018-09-01T12:22:53.862Z,1.15
2018-09-01T12:25:22.897Z,1.10
2018-09-01T12:27:51.188Z,1.55
2018-09-01T12:30:19.593Z,1.80
2018-09-01T12:32:47.787Z,2.17
2018-09-01T12:35:16.178Z,1.50
2018-09-01T12:37:44.779Z,1.35
2018-09-01T12:40:13.204Z,1.00
2018-09-01T12:42:41.526Z,1.57
2018-09-01T12:45:09.720Z,1.70
2018-09-01T12:47:37.966Z,1.50
2018-09-01T12:50:06.236Z,1.40
2018-09-01T12:52:34.428Z,1.60
2018-09-01T12:55:02.736Z,1.25
2018-09-01T12:57:30.920Z,1.47
2018-09-01T12:59:59.163Z,1.20
2018-09-01T13:02:27.392Z,1.87
2018-09-01T13:04:55.698Z,1.50
2018-09-01T13:07:23.940Z,1.32
2018-09-01T13:09:52.478Z,1.35
2018-09-01T13:12:20.875Z,1.45
2018-09-01T13:14:49.255Z,1.60
2018-09-01T13:17:17.453Z,1.57
2018-09-01T13:19:45.821Z,2.30
2018-09-01T13:22:13.971Z,1.15
2018-09-01T13:24:42.215Z,1.90
2018-09-01T13:27:10.472Z,1.95
2018-09-01T13:29:38.793Z,1.67
2018-09-01T13:32:07.069Z,1.77
2018-09-01T13:34:35.372Z,1.50
2018-09-01T13:37:03.867Z,1.98
2018-09-01T13:39:32.136Z,1.47
2018-09-01T13:42:00.677Z,3.08
2018-09-01T13:44:28.987Z,2.00
2018-09-01T13:46:57.613Z,2.42
2018-09-01T13:49:25.949Z,1.70
2018-09-01T13:51:54.223Z,1.57
2018-09-01T13:54:22.483Z,1.70
2018-09-01T13:56:50.739Z,1.90
2018-09-01T13:59:18.950Z,1.90
2018-09-01T14:01:47.187Z,1.70
2018-09-01T14:04:15.452Z,1.42
2018-09-01T14:06:43.635Z,1.90
2018-09-01T14:09:11.971Z,1.62
2018-09-01T14:11:40.378Z,1.60
2018-09-01T14:14:08.636Z,1.60
2018-09-01T14:16:37.150Z,2.60
2018-09-01T14:19:05.685Z,1.80
2018-09-01T14:21:34.164Z,1.72
2018-09-01T14:24:02.347Z,1.42
2018-09-01T14:26:30.656Z,1.52
2018-09-01T14:28:58.827Z,1.80
2018-09-01T14:31:27.125Z,2.05
2018-09-01T14:33:55.351Z,1.65
2018-09-01T14:36:23.611Z,1.50
2018-09-01T14:38:51.869Z,1.52
2018-09-01T14:41:20.035Z,1.70
2018-09-01T14:43:48.288Z,2.02
2018-09-01T14:46:16.847Z,1.65
2018-09-01T14:48:45.064Z,1.70
2018-09-01T14:51:13.239Z,4.03
2018-09-01T14:53:41.452Z,1.92
2018-09-01T14:56:09.662Z,1.60
2018-09-01T14:58:37.938Z,1.55
2018-09-01T15:01:06.332Z,1.62
2018-09-01T15:03:34.770Z,1.90
2018-09-01T15:06:03.016Z,1.80
2018-09-01T15:08:31.479Z,1.65
2018-09-01T15:10:59.653Z,1.77
2018-09-01T15:13:27.852Z,1.92
2018-09-01T15:15:56.051Z,1.70
2018-09-01T15:18:24.411Z,1.72
2018-09-01T15:20:52.638Z,1.62
2018-09-01T15:23:20.903Z,1.87
2018-09-01T15:25:49.062Z,1.82
2018-09-01T15:28:17.360Z,1.80
2018-09-01T15:30:45.559Z,1.40
2018-09-01T15:33:13.772Z,1.92
2018-09-01T15:35:41.978Z,2.37
2018-09-01T15:38:10.188Z,2.00
2018-09-01T15:40:38.572Z,2.15
2018-09-01T15:43:06.843Z,2.10
2018-09-01T15:45:35.132Z,1.85
2018-09-01T15:48:03.369Z,2.10
2018-09-01T15:50:31.546Z,1.77
2018-09-01T15:52:59.731Z,2.00
2018-09-01T15:55:27.945Z,1.75
2018-09-01T15:57:56.285Z,1.75
2018-09-01T16:00:24.541Z,1.75
2018-09-01T16:02:52.873Z,1.85
2018-09-01T16:05:21.062Z,1.80
2018-09-01T16:07:49.365Z,2.60
2018-09-01T16:10:17.596Z,1.57
2018-09-01T16:12:45.825Z,1.95
2018-09-01T16:15:14.720Z,1.80
2018-09-01T16:17:42.980Z,1.60
2018-09-01T16:20:11.441Z,2.00
2018-09-01T16:22:39.699Z,1.45
2018-09-01T16:25:07.878Z,1.65
2018-09-01T16:27:36.087Z,1.90
2018-09-01T16:30:04.425Z,1.60
2018-09-01T16:32:32.780Z,1.72
2018-09-01T16:35:01.009Z,1.75
2018-09-01T16:37:29.338Z,1.75
2018-09-01T16:39:57.528Z,1.85
2018-09-01T16:42:26.022Z,1.65
2018-09-01T16:44:54.386Z,3.12
2018-09-01T16:47:22.896Z,1.70
2018-09-01T16:49:51.443Z,807.45
2018-09-01T16:52:20.253Z,14.25
2018-09-01T16:54:48.496Z,9.60
2018-09-01T16:57:16.725Z,230.75
2018-09-01T16:59:44.929Z,73.20
2018-09-01T17:02:13.204Z,999.90
2018-09-01T17:04:41.403Z,734.15
2018-09-01T17:07:09.751Z,999.90
2018-09-01T17:09:38.012Z,824.38
2018-09-01T17:12:06.299Z,61.58
2018-09-01T17:14:34.553Z,2.42
2018-09-01T17:17:03.203Z,2.47
2018-09-01T17:19:31.719Z,1.82
2018-09-01T17:21:59.926Z,3.12
2018-09-01T17:24:28.152Z,2.10
2018-09-01T17:26:56.348Z,1.92
2018-09-01T17:29:24.605Z,1.92
2018-09-01T17:31:52.752Z,2.00
2018-09-01T17:34:20.926Z,1.98
2018-09-01T17:36:49.144Z,2.27
2018-09-01T17:39:17.340Z,3.58
2018-09-01T17:41:45.754Z,2.77
2018-09-01T17:44:13.956Z,2.33
2018-09-01T17:46:42.152Z,2.77
2018-09-01T17:49:10.450Z,1.90
2018-09-01T17:51:38.639Z,2.02
2018-09-01T17:54:07.030Z,1.82
2018-09-01T17:56:35.407Z,1.77
2018-09-01T17:59:03.787Z,1.97
2018-09-01T18:01:32.794Z,2.20
2018-09-01T18:04:01.177Z,2.67
2018-09-01T18:06:29.335Z,2.20
2018-09-01T18:08:57.465Z,1.77
2018-09-01T18:11:25.663Z,1.93
2018-09-01T18:13:53.847Z,1.97
2018-09-01T18:16:22.130Z,1.90
2018-09-01T18:18:50.372Z,2.30
2018-09-01T18:21:18.672Z,2.23
2018-09-01T18:23:46.886Z,2.03
2018-09-01T18:26:15.155Z,1.93
2018-09-01T18:28:43.303Z,2.03
2018-09-01T18:31:11.514Z,2.90
2018-09-01T18:33:39.649Z,2.90
2018-09-01T18:36:07.815Z,2.63
2018-09-01T18:38:36.152Z,2.80
2018-09-01T18:41:04.398Z,2.20
2018-09-01T18:43:32.664Z,2.43
2018-09-01T18:46:00.873Z,3.83
2018-09-01T18:48:29.051Z,3.27
2018-09-01T18:50:57.252Z,3.10
2018-09-01T18:53:25.442Z,3.10
2018-09-01T18:55:53.629Z,2.70
2018-09-01T18:58:21.828Z,2.90
2018-09-01T19:00:50.088Z,3.43
2018-09-01T19:03:18.232Z,4.20
2018-09-01T19:05:46.532Z,11.43
2018-09-01T19:08:14.725Z,13.50
2018-09-01T19:10:42.954Z,15.07
2018-09-01T19:13:11.143Z,11.77
2018-09-01T19:15:39.388Z,7.20
2018-09-01T19:18:07.628Z,4.57
2018-09-01T19:20:35.768Z,3.57
2018-09-01T19:23:04.016Z,3.47
2018-09-01T19:25:32.308Z,3.03
2018-09-01T19:28:00.527Z,2.90
2018-09-01T19:30:28.710Z,2.77
2018-09-01T19:32:57.015Z,2.70
2018-09-01T19:35:25.197Z,3.10
2018-09-01T19:37:53.542Z,3.80
2018-09-01T19:40:21.791Z,3.53
2018-09-01T19:42:49.998Z,4.67
2018-09-01T19:45:18.311Z,3.20
2018-09-01T19:47:46.445Z,3.70
2018-09-01T19:50:14.710Z,3.10
2018-09-01T19:52:42.942Z,4.57
2018-09-01T19:55:11.308Z,3.30
2018-09-01T19:57:39.556Z,3.10
2018-09-01T20:00:08.409Z,3.13
2018-09-01T20:02:36.744Z,2.90
2018-09-01T20:05:05.020Z,7.57
2018-09-01T20:07:33.330Z,4.53
2018-09-01T20:10:01.524Z,3.20
2018-09-01T20:12:29.723Z,3.03
2018-09-01T20:14:57.948Z,3.10
2018-09-01T20:17:26.184Z,3.23
2018-09-01T20:19:54.486Z,4.00
2018-09-01T20:22:22.670Z,4.60
2018-09-01T20:24:50.930Z,4.30
2018-09-01T20:27:19.134Z,3.80
2018-09-01T20:29:47.365Z,3.50
2018-09-01T20:32:16.505Z,3.03
2018-09-01T20:34:45.605Z,2.60
2018-09-01T20:37:14.479Z,2.40
2018-09-01T20:39:43.068Z,2.53
2018-09-01T20:42:11.343Z,4.17
2018-09-01T20:44:39.531Z,11.93
2018-09-01T20:47:07.738Z,8.60
2018-09-01T20:49:36.001Z,5.73
2018-09-01T20:52:04.256Z,9.57
2018-09-01T20:54:32.425Z,9.47
2018-09-01T20:57:00.658Z,6.30
2018-09-01T20:59:28.838Z,7.83
2018-09-01T21:01:56.999Z,11.50
2018-09-01T21:04:25.446Z,13.23
2018-09-01T21:06:53.455Z,8.23
2018-09-01T21:09:21.674Z,7.20
2018-09-01T21:11:49.998Z,4.43
2018-09-01T21:14:18.180Z,3.13
2018-09-01T21:16:46.508Z,3.00
2018-09-01T21:19:14.695Z,3.30
2018-09-01T21:21:42.887Z,3.07
2018-09-01T21:24:12.002Z,2.70
2018-09-01T21:26:40.814Z,3.00
2018-09-01T21:29:09.126Z,3.03
2018-09-01T21:31:37.534Z,2.83
2018-09-01T21:34:06.025Z,2.90
2018-09-01T21:36:34.245Z,3.00
2018-09-01T21:39:03.199Z,3.03
2018-09-01T21:41:31.567Z,3.23
2018-09-01T21:43:59.878Z,3.77
2018-09-01T21:46:28.170Z,3.67
2018-09-01T21:48:56.500Z,4.70
2018-09-01T21:51:24.737Z,4.53
2018-09-01T21:53:53.115Z,4.00
2018-09-01T21:56:21.345Z,3.50
2018-09-01T21:58:49.620Z,4.40
2018-09-01T22:01:23.339Z,5.20
2018-09-01T22:03:51.598Z,123.60
2018-09-01T22:06:19.849Z,90.37
2018-09-01T22:08:48.654Z,20.10
2018-09-01T22:11:17.262Z,11.47
2018-09-01T22:13:45.445Z,8.43
2018-09-01T22:16:13.640Z,5.00
2018-09-01T22:18:41.820Z,10.53
2018-09-01T22:21:10.035Z,3.73
2018-09-01T22:23:38.621Z,3.70
2018-09-01T22:26:06.946Z,3.10
2018-09-01T22:28:35.216Z,3.50
2018-09-01T22:31:03.629Z,3.40
2018-09-01T22:33:31.782Z,3.27
2018-09-01T22:36:00.167Z,3.87
2018-09-01T22:38:28.687Z,3.03
2018-09-01T22:40:56.920Z,3.27
2018-09-01T22:43:25.247Z,8.77
2018-09-01T22:45:53.552Z,11.97
2018-09-01T22:48:21.899Z,10.77
2018-09-01T22:50:50.093Z,10.30
2018-09-01T22:53:18.628Z,8.27
2018-09-01T22:55:46.862Z,6.10
2018-09-01T22:58:15.120Z,6.10
2018-09-01T23:00:43.382Z,6.10
2018-09-01T23:03:11.583Z,6.30
2018-09-01T23:05:39.766Z,5.77
2018-09-01T23:08:07.954Z,6.10
2018-09-01T23:10:36.151Z,5.60
2018-09-01T23:13:04.335Z,4.60
2018-09-01T23:15:32.670Z,5.13
2018-09-01T23:18:00.824Z,5.07
2018-09-01T23:20:29.037Z,4.60
2018-09-01T23:22:57.226Z,4.90
2018-09-01T23:25:25.424Z,4.57
2018-09-01T23:27:53.636Z,4.87
2018-09-01T23:30:21.855Z,5.33
2018-09-01T23:32:50.064Z,4.40
2018-09-01T23:35:18.527Z,4.07
2018-09-01T23:37:46.660Z,4.17
2018-09-01T23:40:14.873Z,4.83
2018-09-01T23:42:43.181Z,4.80
2018-09-01T23:45:11.354Z,4.70
2018-09-01T23:47:39.592Z,4.97
2018-09-01T23:50:07.796Z,4.60
2018-09-01T23:52:36.011Z,5.53
2018-09-01T23:55:04.404Z,4.57
2018-09-01T23:57:32.704Z,5.07
